sensor_id;sensor_type;location;lat;lon;timestamp;P1;durP1;ratioP1;P2;durP2;ratioP2
59273;SDS011;45044;41.572;24.730;2023-08-06T00:00:55;10.50;;;8.48;;
59273;SDS011;45044;41.572;24.730;2023-08-06T00:03:22;9.00;;;7.32;;
59273;SDS011;45044;41.572;24.730;2023-08-06T00:05:49;8.35;;;6.97;;
59273;SDS011;45044;41.572;24.730;2023-08-06T00:08:16;10.45;;;7.95;;
59273;SDS011;45044;41.572;24.730;2023-08-06T00:10:43;10.90;;;8.25;;
59273;SDS011;45044;41.572;24.730;2023-08-06T00:13:09;11.60;;;8.50;;
59273;SDS011;45044;41.572;24.730;2023-08-06T00:15:36;10.77;;;8.18;;
59273;SDS011;45044;41.572;24.730;2023-08-06T00:18:03;12.60;;;10.02;;
59273;SDS011;45044;41.572;24.730;2023-08-06T00:20:30;11.60;;;9.40;;
59273;SDS011;45044;41.572;24.730;2023-08-06T00:22:57;13.10;;;10.32;;
59273;SDS011;45044;41.572;24.730;2023-08-06T00:25:23;12.32;;;10.95;;
59273;SDS011;45044;41.572;24.730;2023-08-06T00:27:50;13.55;;;10.43;;
59273;SDS011;45044;41.572;24.730;2023-08-06T00:30:17;12.35;;;10.02;;
59273;SDS011;45044;41.572;24.730;2023-08-06T00:32:44;12.05;;;10.00;;
59273;SDS011;45044;41.572;24.730;2023-08-06T00:35:11;12.07;;;10.07;;
59273;SDS011;45044;41.572;24.730;2023-08-06T00:37:39;12.07;;;10.13;;
59273;SDS011;45044;41.572;24.730;2023-08-06T00:40:06;11.63;;;9.60;;
59273;SDS011;45044;41.572;24.730;2023-08-06T00:42:34;13.50;;;9.90;;
59273;SDS011;45044;41.572;24.730;2023-08-06T00:45:01;10.90;;;9.13;;
59273;SDS011;45044;41.572;24.730;2023-08-06T00:47:29;12.25;;;8.95;;
59273;SDS011;45044;41.572;24.730;2023-08-06T00:49:56;10.93;;;9.23;;
59273;SDS011;45044;41.572;24.730;2023-08-06T00:52:23;11.18;;;9.23;;
59273;SDS011;45044;41.572;24.730;2023-08-06T00:54:50;11.40;;;9.82;;
59273;SDS011;45044;41.572;24.730;2023-08-06T00:57:17;10.57;;;9.43;;
59273;SDS011;45044;41.572;24.730;2023-08-06T00:59:44;11.43;;;8.70;;
59273;SDS011;45044;41.572;24.730;2023-08-06T01:02:12;11.55;;;9.55;;
59273;SDS011;45044;41.572;24.730;2023-08-06T01:04:38;10.48;;;8.75;;
59273;SDS011;45044;41.572;24.730;2023-08-06T01:10:19;11.43;;;8.70;;
59273;SDS011;45044;41.572;24.730;2023-08-06T01:13:08;10.40;;;8.00;;
59273;SDS011;45044;41.572;24.730;2023-08-06T01:15:48;10.15;;;7.80;;
59273;SDS011;45044;41.572;24.730;2023-08-06T01:18:20;12.45;;;8.10;;
59273;SDS011;45044;41.572;24.730;2023-08-06T01:20:47;11.57;;;7.93;;
59273;SDS011;45044;41.572;24.730;2023-08-06T01:23:16;10.50;;;8.18;;
59273;SDS011;45044;41.572;24.730;2023-08-06T01:31:04;12.30;;;9.27;;
59273;SDS011;45044;41.572;24.730;2023-08-06T01:33:34;11.32;;;9.10;;
59273;SDS011;45044;41.572;24.730;2023-08-06T01:36:02;11.38;;;9.20;;
59273;SDS011;45044;41.572;24.730;2023-08-06T01:38:30;13.55;;;9.95;;
59273;SDS011;45044;41.572;24.730;2023-08-06T01:40:57;11.55;;;9.75;;
59273;SDS011;45044;41.572;24.730;2023-08-06T01:43:23;10.52;;;8.82;;
59273;SDS011;45044;41.572;24.730;2023-08-06T01:45:50;11.73;;;9.38;;
59273;SDS011;45044;41.572;24.730;2023-08-06T01:48:17;11.48;;;10.27;;
59273;SDS011;45044;41.572;24.730;2023-08-06T01:50:44;11.98;;;9.32;;
59273;SDS011;45044;41.572;24.730;2023-08-06T01:53:10;12.23;;;9.45;;
59273;SDS011;45044;41.572;24.730;2023-08-06T01:55:37;11.52;;;9.15;;
59273;SDS011;45044;41.572;24.730;2023-08-06T01:58:04;10.70;;;9.18;;
59273;SDS011;45044;41.572;24.730;2023-08-06T02:00:30;10.95;;;9.48;;
59273;SDS011;45044;41.572;24.730;2023-08-06T02:02:57;10.77;;;9.55;;
59273;SDS011;45044;41.572;24.730;2023-08-06T02:05:24;11.50;;;9.55;;
59273;SDS011;45044;41.572;24.730;2023-08-06T02:07:58;12.18;;;8.52;;
59273;SDS011;45044;41.572;24.730;2023-08-06T02:10:25;12.57;;;9.60;;
59273;SDS011;45044;41.572;24.730;2023-08-06T02:12:52;10.23;;;7.90;;
59273;SDS011;45044;41.572;24.730;2023-08-06T02:15:19;11.35;;;8.60;;
59273;SDS011;45044;41.572;24.730;2023-08-06T02:17:45;12.57;;;9.13;;
59273;SDS011;45044;41.572;24.730;2023-08-06T02:20:12;12.05;;;9.93;;
59273;SDS011;45044;41.572;24.730;2023-08-06T02:22:39;11.85;;;9.43;;
59273;SDS011;45044;41.572;24.730;2023-08-06T02:25:06;11.95;;;9.05;;
59273;SDS011;45044;41.572;24.730;2023-08-06T02:27:33;11.48;;;9.27;;
59273;SDS011;45044;41.572;24.730;2023-08-06T02:30:00;12.70;;;10.48;;
59273;SDS011;45044;41.572;24.730;2023-08-06T02:32:28;13.23;;;10.63;;
59273;SDS011;45044;41.572;24.730;2023-08-06T02:34:58;12.75;;;11.07;;
59273;SDS011;45044;41.572;24.730;2023-08-06T02:37:26;11.88;;;9.65;;
59273;SDS011;45044;41.572;24.730;2023-08-06T02:39:53;12.15;;;9.38;;
59273;SDS011;45044;41.572;24.730;2023-08-06T02:42:20;12.55;;;9.70;;
59273;SDS011;45044;41.572;24.730;2023-08-06T02:44:46;12.07;;;9.55;;
59273;SDS011;45044;41.572;24.730;2023-08-06T02:47:13;11.55;;;9.48;;
59273;SDS011;45044;41.572;24.730;2023-08-06T02:49:40;13.63;;;9.77;;
59273;SDS011;45044;41.572;24.730;2023-08-06T02:52:07;9.70;;;8.68;;
59273;SDS011;45044;41.572;24.730;2023-08-06T02:54:33;11.25;;;9.10;;
59273;SDS011;45044;41.572;24.730;2023-08-06T02:57:00;10.85;;;9.07;;
59273;SDS011;45044;41.572;24.730;2023-08-06T02:59:27;12.73;;;8.90;;
59273;SDS011;45044;41.572;24.730;2023-08-06T03:01:54;10.98;;;7.85;;
59273;SDS011;45044;41.572;24.730;2023-08-06T03:04:20;10.07;;;8.43;;
59273;SDS011;45044;41.572;24.730;2023-08-06T03:06:49;12.93;;;8.90;;
59273;SDS011;45044;41.572;24.730;2023-08-06T03:09:17;10.13;;;8.38;;
59273;SDS011;45044;41.572;24.730;2023-08-06T03:11:44;11.38;;;8.73;;
59273;SDS011;45044;41.572;24.730;2023-08-06T03:14:10;9.77;;;8.23;;
59273;SDS011;45044;41.572;24.730;2023-08-06T03:16:37;10.68;;;8.32;;
59273;SDS011;45044;41.572;24.730;2023-08-06T03:19:04;11.57;;;9.32;;
59273;SDS011;45044;41.572;24.730;2023-08-06T03:21:31;10.63;;;8.05;;
59273;SDS011;45044;41.572;24.730;2023-08-06T03:23:57;11.60;;;8.52;;
59273;SDS011;45044;41.572;24.730;2023-08-06T03:26:24;9.95;;;8.93;;
59273;SDS011;45044;41.572;24.730;2023-08-06T03:28:51;12.40;;;9.35;;
59273;SDS011;45044;41.572;24.730;2023-08-06T03:31:18;10.70;;;8.57;;
59273;SDS011;45044;41.572;24.730;2023-08-06T03:33:44;10.77;;;8.60;;
59273;SDS011;45044;41.572;24.730;2023-08-06T03:36:11;11.65;;;8.98;;
59273;SDS011;45044;41.572;24.730;2023-08-06T03:38:38;10.57;;;8.27;;
59273;SDS011;45044;41.572;24.730;2023-08-06T03:41:05;13.40;;;10.00;;
59273;SDS011;45044;41.572;24.730;2023-08-06T03:43:31;10.30;;;8.73;;
59273;SDS011;45044;41.572;24.730;2023-08-06T03:45:58;11.57;;;9.57;;
59273;SDS011;45044;41.572;24.730;2023-08-06T03:48:25;11.38;;;8.90;;
59273;SDS011;45044;41.572;24.730;2023-08-06T03:50:52;13.60;;;10.23;;
59273;SDS011;45044;41.572;24.730;2023-08-06T03:53:19;14.68;;;10.02;;
59273;SDS011;45044;41.572;24.730;2023-08-06T03:55:46;12.23;;;10.20;;
59273;SDS011;45044;41.572;24.730;2023-08-06T03:58:12;13.23;;;11.02;;
59273;SDS011;45044;41.572;24.730;2023-08-06T04:00:39;14.20;;;10.82;;
59273;SDS011;45044;41.572;24.730;2023-08-06T04:03:06;12.93;;;10.10;;
59273;SDS011;45044;41.572;24.730;2023-08-06T04:05:33;12.63;;;10.50;;
59273;SDS011;45044;41.572;24.730;2023-08-06T04:07:59;14.52;;;10.75;;
59273;SDS011;45044;41.572;24.730;2023-08-06T04:10:27;14.82;;;11.15;;
59273;SDS011;45044;41.572;24.730;2023-08-06T04:12:53;14.55;;;11.20;;
59273;SDS011;45044;41.572;24.730;2023-08-06T04:15:20;12.70;;;11.35;;
59273;SDS011;45044;41.572;24.730;2023-08-06T04:17:47;13.15;;;11.73;;
59273;SDS011;45044;41.572;24.730;2023-08-06T04:20:14;12.35;;;10.45;;
59273;SDS011;45044;41.572;24.730;2023-08-06T04:22:40;12.43;;;11.13;;
59273;SDS011;45044;41.572;24.730;2023-08-06T04:25:07;15.38;;;11.32;;
59273;SDS011;45044;41.572;24.730;2023-08-06T04:27:34;13.35;;;11.38;;
59273;SDS011;45044;41.572;24.730;2023-08-06T04:30:03;14.40;;;10.80;;
59273;SDS011;45044;41.572;24.730;2023-08-06T04:32:34;14.40;;;12.30;;
59273;SDS011;45044;41.572;24.730;2023-08-06T04:35:01;14.23;;;10.38;;
59273;SDS011;45044;41.572;24.730;2023-08-06T04:37:27;14.73;;;12.13;;
59273;SDS011;45044;41.572;24.730;2023-08-06T04:39:54;14.50;;;11.68;;
59273;SDS011;45044;41.572;24.730;2023-08-06T04:42:21;13.00;;;11.32;;
59273;SDS011;45044;41.572;24.730;2023-08-06T04:44:47;12.70;;;11.13;;
59273;SDS011;45044;41.572;24.730;2023-08-06T04:47:14;13.95;;;11.73;;
59273;SDS011;45044;41.572;24.730;2023-08-06T04:49:41;14.65;;;12.90;;
59273;SDS011;45044;41.572;24.730;2023-08-06T04:52:08;14.70;;;12.32;;
59273;SDS011;45044;41.572;24.730;2023-08-06T04:54:35;15.45;;;11.65;;
59273;SDS011;45044;41.572;24.730;2023-08-06T04:57:01;15.77;;;12.45;;
59273;SDS011;45044;41.572;24.730;2023-08-06T04:59:28;15.38;;;11.68;;
59273;SDS011;45044;41.572;24.730;2023-08-06T05:01:55;16.20;;;12.13;;
59273;SDS011;45044;41.572;24.730;2023-08-06T05:04:22;14.30;;;11.85;;
59273;SDS011;45044;41.572;24.730;2023-08-06T05:06:49;13.98;;;12.35;;
59273;SDS011;45044;41.572;24.730;2023-08-06T05:09:16;14.05;;;11.88;;
59273;SDS011;45044;41.572;24.730;2023-08-06T05:11:43;17.38;;;13.98;;
59273;SDS011;45044;41.572;24.730;2023-08-06T05:14:10;19.10;;;14.10;;
59273;SDS011;45044;41.572;24.730;2023-08-06T05:16:36;19.52;;;12.02;;
59273;SDS011;45044;41.572;24.730;2023-08-06T05:19:03;16.08;;;13.43;;
59273;SDS011;45044;41.572;24.730;2023-08-06T05:21:30;18.85;;;15.10;;
59273;SDS011;45044;41.572;24.730;2023-08-06T05:23:56;17.92;;;14.20;;
59273;SDS011;45044;41.572;24.730;2023-08-06T05:26:23;15.55;;;12.63;;
59273;SDS011;45044;41.572;24.730;2023-08-06T05:28:50;17.85;;;14.50;;
59273;SDS011;45044;41.572;24.730;2023-08-06T05:31:17;17.33;;;14.27;;
59273;SDS011;45044;41.572;24.730;2023-08-06T05:33:45;18.20;;;14.85;;
59273;SDS011;45044;41.572;24.730;2023-08-06T05:36:11;18.95;;;16.40;;
59273;SDS011;45044;41.572;24.730;2023-08-06T05:38:38;20.60;;;15.95;;
59273;SDS011;45044;41.572;24.730;2023-08-06T05:41:05;19.20;;;14.63;;
59273;SDS011;45044;41.572;24.730;2023-08-06T05:43:34;15.10;;;12.50;;
59273;SDS011;45044;41.572;24.730;2023-08-06T05:46:01;16.63;;;12.95;;
59273;SDS011;45044;41.572;24.730;2023-08-06T05:48:28;15.05;;;12.02;;
59273;SDS011;45044;41.572;24.730;2023-08-06T05:50:55;15.63;;;11.52;;
59273;SDS011;45044;41.572;24.730;2023-08-06T05:53:22;16.00;;;11.23;;
59273;SDS011;45044;41.572;24.730;2023-08-06T05:55:49;14.07;;;9.88;;
59273;SDS011;45044;41.572;24.730;2023-08-06T05:58:16;13.80;;;10.63;;
59273;SDS011;45044;41.572;24.730;2023-08-06T06:00:43;15.15;;;10.82;;
59273;SDS011;45044;41.572;24.730;2023-08-06T06:03:09;13.48;;;11.02;;
59273;SDS011;45044;41.572;24.730;2023-08-06T06:05:39;15.95;;;11.05;;
59273;SDS011;45044;41.572;24.730;2023-08-06T06:08:06;15.23;;;13.00;;
59273;SDS011;45044;41.572;24.730;2023-08-06T06:10:33;19.85;;;15.00;;
59273;SDS011;45044;41.572;24.730;2023-08-06T06:12:59;19.83;;;15.90;;
59273;SDS011;45044;41.572;24.730;2023-08-06T06:15:26;18.38;;;16.48;;
59273;SDS011;45044;41.572;24.730;2023-08-06T06:17:53;16.35;;;13.85;;
59273;SDS011;45044;41.572;24.730;2023-08-06T06:20:20;16.00;;;12.73;;
59273;SDS011;45044;41.572;24.730;2023-08-06T06:22:47;14.00;;;10.88;;
59273;SDS011;45044;41.572;24.730;2023-08-06T06:25:14;11.40;;;9.25;;
59273;SDS011;45044;41.572;24.730;2023-08-06T06:27:40;10.43;;;8.00;;
59273;SDS011;45044;41.572;24.730;2023-08-06T06:30:07;9.40;;;7.50;;
59273;SDS011;45044;41.572;24.730;2023-08-06T06:32:34;9.45;;;8.25;;
59273;SDS011;45044;41.572;24.730;2023-08-06T06:35:01;10.50;;;7.95;;
59273;SDS011;45044;41.572;24.730;2023-08-06T06:37:28;9.13;;;7.90;;
59273;SDS011;45044;41.572;24.730;2023-08-06T06:39:55;9.90;;;7.60;;
59273;SDS011;45044;41.572;24.730;2023-08-06T06:42:22;10.45;;;7.75;;
59273;SDS011;45044;41.572;24.730;2023-08-06T06:44:49;8.88;;;7.28;;
59273;SDS011;45044;41.572;24.730;2023-08-06T06:47:16;7.80;;;6.40;;
59273;SDS011;45044;41.572;24.730;2023-08-06T06:49:42;8.45;;;6.25;;
59273;SDS011;45044;41.572;24.730;2023-08-06T06:52:09;7.40;;;6.28;;
59273;SDS011;45044;41.572;24.730;2023-08-06T06:54:37;7.03;;;6.25;;
59273;SDS011;45044;41.572;24.730;2023-08-06T06:57:04;7.32;;;6.55;;
59273;SDS011;45044;41.572;24.730;2023-08-06T06:59:32;7.70;;;6.38;;
59273;SDS011;45044;41.572;24.730;2023-08-06T07:01:59;8.43;;;6.70;;
59273;SDS011;45044;41.572;24.730;2023-08-06T07:04:25;6.47;;;5.32;;
59273;SDS011;45044;41.572;24.730;2023-08-06T07:06:52;8.10;;;6.32;;
59273;SDS011;45044;41.572;24.730;2023-08-06T07:09:19;8.10;;;6.22;;
59273;SDS011;45044;41.572;24.730;2023-08-06T07:11:46;6.53;;;5.30;;
59273;SDS011;45044;41.572;24.730;2023-08-06T07:14:12;6.38;;;5.70;;
59273;SDS011;45044;41.572;24.730;2023-08-06T07:16:40;8.98;;;7.35;;
59273;SDS011;45044;41.572;24.730;2023-08-06T07:19:07;9.52;;;7.38;;
59273;SDS011;45044;41.572;24.730;2023-08-06T07:21:34;7.40;;;5.97;;
59273;SDS011;45044;41.572;24.730;2023-08-06T07:24:01;7.13;;;5.93;;
59273;SDS011;45044;41.572;24.730;2023-08-06T07:26:28;7.45;;;6.53;;
59273;SDS011;45044;41.572;24.730;2023-08-06T07:28:54;6.45;;;5.68;;
59273;SDS011;45044;41.572;24.730;2023-08-06T07:31:21;7.80;;;5.82;;
59273;SDS011;45044;41.572;24.730;2023-08-06T07:33:48;7.40;;;5.68;;
59273;SDS011;45044;41.572;24.730;2023-08-06T07:36:15;7.85;;;5.65;;
59273;SDS011;45044;41.572;24.730;2023-08-06T07:38:42;9.18;;;5.57;;
59273;SDS011;45044;41.572;24.730;2023-08-06T07:41:09;6.78;;;5.25;;
59273;SDS011;45044;41.572;24.730;2023-08-06T07:43:35;7.88;;;5.07;;
59273;SDS011;45044;41.572;24.730;2023-08-06T07:46:02;8.45;;;5.70;;
59273;SDS011;45044;41.572;24.730;2023-08-06T07:48:30;7.60;;;6.80;;
59273;SDS011;45044;41.572;24.730;2023-08-06T07:50:57;7.93;;;6.57;;
59273;SDS011;45044;41.572;24.730;2023-08-06T07:53:24;7.90;;;6.13;;
59273;SDS011;45044;41.572;24.730;2023-08-06T07:55:56;8.68;;;7.22;;
59273;SDS011;45044;41.572;24.730;2023-08-06T07:58:23;9.43;;;8.10;;
59273;SDS011;45044;41.572;24.730;2023-08-06T08:00:51;9.23;;;8.23;;
59273;SDS011;45044;41.572;24.730;2023-08-06T08:03:18;8.32;;;7.22;;
59273;SDS011;45044;41.572;24.730;2023-08-06T08:05:46;9.45;;;8.15;;
59273;SDS011;45044;41.572;24.730;2023-08-06T08:08:13;7.97;;;7.18;;
59273;SDS011;45044;41.572;24.730;2023-08-06T08:10:40;9.52;;;7.68;;
59273;SDS011;45044;41.572;24.730;2023-08-06T08:13:07;9.02;;;7.20;;
59273;SDS011;45044;41.572;24.730;2023-08-06T08:15:33;7.82;;;7.03;;
59273;SDS011;45044;41.572;24.730;2023-08-06T08:18:00;11.02;;;7.80;;
59273;SDS011;45044;41.572;24.730;2023-08-06T08:20:27;8.02;;;6.82;;
59273;SDS011;45044;41.572;24.730;2023-08-06T08:22:59;8.63;;;6.70;;
59273;SDS011;45044;41.572;24.730;2023-08-06T08:25:27;8.20;;;6.07;;
59273;SDS011;45044;41.572;24.730;2023-08-06T08:27:57;7.38;;;6.43;;
59273;SDS011;45044;41.572;24.730;2023-08-06T08:30:24;9.38;;;6.43;;
59273;SDS011;45044;41.572;24.730;2023-08-06T08:32:52;8.43;;;6.57;;
59273;SDS011;45044;41.572;24.730;2023-08-06T08:35:19;8.63;;;6.50;;
59273;SDS011;45044;41.572;24.730;2023-08-06T08:37:46;8.55;;;6.63;;
59273;SDS011;45044;41.572;24.730;2023-08-06T08:40:13;9.45;;;7.45;;
59273;SDS011;45044;41.572;24.730;2023-08-06T08:42:41;7.00;;;6.03;;
59273;SDS011;45044;41.572;24.730;2023-08-06T08:45:15;8.40;;;6.35;;
59273;SDS011;45044;41.572;24.730;2023-08-06T08:47:42;7.80;;;6.20;;
59273;SDS011;45044;41.572;24.730;2023-08-06T08:50:14;7.18;;;5.78;;
59273;SDS011;45044;41.572;24.730;2023-08-06T08:52:41;7.25;;;5.68;;
59273;SDS011;45044;41.572;24.730;2023-08-06T08:55:12;8.50;;;6.25;;
59273;SDS011;45044;41.572;24.730;2023-08-06T08:57:41;9.23;;;5.65;;
59273;SDS011;45044;41.572;24.730;2023-08-06T09:00:08;7.10;;;5.32;;
59273;SDS011;45044;41.572;24.730;2023-08-06T09:02:36;9.05;;;6.18;;
59273;SDS011;45044;41.572;24.730;2023-08-06T09:05:05;6.97;;;5.35;;
59273;SDS011;45044;41.572;24.730;2023-08-06T09:07:39;8.68;;;6.10;;
59273;SDS011;45044;41.572;24.730;2023-08-06T09:10:10;8.15;;;6.18;;
59273;SDS011;45044;41.572;24.730;2023-08-06T09:12:40;6.65;;;5.32;;
59273;SDS011;45044;41.572;24.730;2023-08-06T09:15:08;6.85;;;4.80;;
59273;SDS011;45044;41.572;24.730;2023-08-06T09:17:35;8.50;;;4.82;;
59273;SDS011;45044;41.572;24.730;2023-08-06T09:20:12;6.68;;;4.80;;
59273;SDS011;45044;41.572;24.730;2023-08-06T09:22:39;5.80;;;4.28;;
59273;SDS011;45044;41.572;24.730;2023-08-06T09:25:07;6.10;;;4.25;;
59273;SDS011;45044;41.572;24.730;2023-08-06T09:27:37;6.45;;;4.53;;
59273;SDS011;45044;41.572;24.730;2023-08-06T09:30:04;6.03;;;3.97;;
59273;SDS011;45044;41.572;24.730;2023-08-06T09:32:55;6.30;;;4.25;;
59273;SDS011;45044;41.572;24.730;2023-08-06T09:35:21;7.15;;;4.90;;
59273;SDS011;45044;41.572;24.730;2023-08-06T09:37:48;5.32;;;3.95;;
59273;SDS011;45044;41.572;24.730;2023-08-06T09:40:28;5.57;;;3.95;;
59273;SDS011;45044;41.572;24.730;2023-08-06T09:42:57;4.82;;;3.60;;
59273;SDS011;45044;41.572;24.730;2023-08-06T09:45:28;6.07;;;3.92;;
59273;SDS011;45044;41.572;24.730;2023-08-06T09:47:59;6.43;;;3.92;;
59273;SDS011;45044;41.572;24.730;2023-08-06T09:50:30;6.65;;;3.60;;
59273;SDS011;45044;41.572;24.730;2023-08-06T09:52:58;6.20;;;3.72;;
59273;SDS011;45044;41.572;24.730;2023-08-06T09:55:26;4.45;;;2.85;;
59273;SDS011;45044;41.572;24.730;2023-08-06T09:57:54;7.70;;;3.60;;
59273;SDS011;45044;41.572;24.730;2023-08-06T10:00:22;6.55;;;3.28;;
59273;SDS011;45044;41.572;24.730;2023-08-06T10:02:49;5.32;;;3.20;;
59273;SDS011;45044;41.572;24.730;2023-08-06T10:05:22;4.93;;;3.60;;
59273;SDS011;45044;41.572;24.730;2023-08-06T10:07:49;5.55;;;3.60;;
59273;SDS011;45044;41.572;24.730;2023-08-06T10:10:20;6.72;;;4.03;;
59273;SDS011;45044;41.572;24.730;2023-08-06T10:12:48;4.07;;;2.90;;
59273;SDS011;45044;41.572;24.730;2023-08-06T10:15:17;4.07;;;3.08;;
59273;SDS011;45044;41.572;24.730;2023-08-06T10:17:51;4.72;;;3.38;;
59273;SDS011;45044;41.572;24.730;2023-08-06T10:20:21;6.30;;;3.83;;
59273;SDS011;45044;41.572;24.730;2023-08-06T10:23:04;4.90;;;3.60;;
59273;SDS011;45044;41.572;24.730;2023-08-06T10:25:34;6.25;;;3.83;;
59273;SDS011;45044;41.572;24.730;2023-08-06T10:28:11;5.45;;;3.78;;
59273;SDS011;45044;41.572;24.730;2023-08-06T10:30:44;6.03;;;3.95;;
59273;SDS011;45044;41.572;24.730;2023-08-06T10:33:12;5.10;;;3.58;;
59273;SDS011;45044;41.572;24.730;2023-08-06T10:35:47;5.47;;;3.80;;
59273;SDS011;45044;41.572;24.730;2023-08-06T10:38:24;7.25;;;4.53;;
59273;SDS011;45044;41.572;24.730;2023-08-06T10:43:27;6.30;;;3.95;;
59273;SDS011;45044;41.572;24.730;2023-08-06T10:45:57;6.57;;;4.05;;
59273;SDS011;45044;41.572;24.730;2023-08-06T10:48:45;5.97;;;4.15;;
59273;SDS011;45044;41.572;24.730;2023-08-06T10:51:13;5.10;;;3.80;;
59273;SDS011;45044;41.572;24.730;2023-08-06T10:53:41;5.05;;;4.13;;
59273;SDS011;45044;41.572;24.730;2023-08-06T10:56:16;5.05;;;3.40;;
59273;SDS011;45044;41.572;24.730;2023-08-06T10:58:44;4.75;;;3.38;;
59273;SDS011;45044;41.572;24.730;2023-08-06T11:01:12;6.13;;;3.97;;
59273;SDS011;45044;41.572;24.730;2023-08-06T11:03:39;4.53;;;3.55;;
59273;SDS011;45044;41.572;24.730;2023-08-06T11:06:07;5.80;;;3.97;;
59273;SDS011;45044;41.572;24.730;2023-08-06T11:08:35;5.10;;;3.45;;
59273;SDS011;45044;41.572;24.730;2023-08-06T11:11:09;4.78;;;3.30;;
59273;SDS011;45044;41.572;24.730;2023-08-06T11:13:37;4.75;;;3.33;;
59273;SDS011;45044;41.572;24.730;2023-08-06T11:16:05;4.25;;;2.53;;
59273;SDS011;45044;41.572;24.730;2023-08-06T11:18:32;5.97;;;3.47;;
59273;SDS011;45044;41.572;24.730;2023-08-06T11:21:02;3.28;;;2.65;;
59273;SDS011;45044;41.572;24.730;2023-08-06T11:23:29;6.32;;;2.85;;
59273;SDS011;45044;41.572;24.730;2023-08-06T11:25:56;5.32;;;3.17;;
59273;SDS011;45044;41.572;24.730;2023-08-06T11:28:23;5.93;;;3.25;;
59273;SDS011;45044;41.572;24.730;2023-08-06T11:30:51;5.03;;;3.17;;
59273;SDS011;45044;41.572;24.730;2023-08-06T11:33:21;4.75;;;2.90;;
59273;SDS011;45044;41.572;24.730;2023-08-06T11:35:49;4.95;;;2.95;;
59273;SDS011;45044;41.572;24.730;2023-08-06T11:38:16;4.88;;;2.88;;
59273;SDS011;45044;41.572;24.730;2023-08-06T11:40:44;3.70;;;2.55;;
59273;SDS011;45044;41.572;24.730;2023-08-06T11:43:12;5.00;;;3.05;;
59273;SDS011;45044;41.572;24.730;2023-08-06T11:45:39;4.28;;;2.22;;
59273;SDS011;45044;41.572;24.730;2023-08-06T11:48:07;4.20;;;2.60;;
59273;SDS011;45044;41.572;24.730;2023-08-06T11:50:37;4.70;;;2.42;;
59273;SDS011;45044;41.572;24.730;2023-08-06T11:53:05;4.72;;;2.38;;
59273;SDS011;45044;41.572;24.730;2023-08-06T11:55:32;2.75;;;2.10;;
59273;SDS011;45044;41.572;24.730;2023-08-06T11:58:02;4.70;;;2.30;;
59273;SDS011;45044;41.572;24.730;2023-08-06T12:00:31;4.03;;;2.15;;
59273;SDS011;45044;41.572;24.730;2023-08-06T12:02:57;2.83;;;2.10;;
59273;SDS011;45044;41.572;24.730;2023-08-06T12:05:31;4.60;;;2.15;;
59273;SDS011;45044;41.572;24.730;2023-08-06T12:08:00;3.95;;;2.03;;
59273;SDS011;45044;41.572;24.730;2023-08-06T12:10:29;4.05;;;2.25;;
59273;SDS011;45044;41.572;24.730;2023-08-06T12:12:56;3.70;;;2.13;;
59273;SDS011;45044;41.572;24.730;2023-08-06T12:15:23;3.42;;;2.20;;
59273;SDS011;45044;41.572;24.730;2023-08-06T12:17:50;4.15;;;2.85;;
59273;SDS011;45044;41.572;24.730;2023-08-06T12:20:18;3.13;;;2.20;;
59273;SDS011;45044;41.572;24.730;2023-08-06T12:22:44;3.25;;;2.30;;
59273;SDS011;45044;41.572;24.730;2023-08-06T12:25:12;4.22;;;2.72;;
59273;SDS011;45044;41.572;24.730;2023-08-06T12:27:42;3.67;;;2.60;;
59273;SDS011;45044;41.572;24.730;2023-08-06T12:30:11;4.88;;;2.60;;
59273;SDS011;45044;41.572;24.730;2023-08-06T12:32:39;5.75;;;2.50;;
59273;SDS011;45044;41.572;24.730;2023-08-06T12:35:06;3.83;;;2.95;;
59273;SDS011;45044;41.572;24.730;2023-08-06T12:37:34;4.28;;;2.60;;
59273;SDS011;45044;41.572;24.730;2023-08-06T12:40:02;3.65;;;2.47;;
59273;SDS011;45044;41.572;24.730;2023-08-06T12:42:50;3.50;;;2.08;;
59273;SDS011;45044;41.572;24.730;2023-08-06T12:45:17;3.47;;;2.20;;
59273;SDS011;45044;41.572;24.730;2023-08-06T12:47:47;4.32;;;2.63;;
59273;SDS011;45044;41.572;24.730;2023-08-06T12:50:16;4.00;;;2.40;;
59273;SDS011;45044;41.572;24.730;2023-08-06T12:52:44;3.75;;;2.63;;
59273;SDS011;45044;41.572;24.730;2023-08-06T12:55:10;2.70;;;1.85;;
59273;SDS011;45044;41.572;24.730;2023-08-06T12:57:37;2.95;;;2.10;;
59273;SDS011;45044;41.572;24.730;2023-08-06T13:00:22;4.15;;;2.60;;
59273;SDS011;45044;41.572;24.730;2023-08-06T13:02:49;3.05;;;2.28;;
59273;SDS011;45044;41.572;24.730;2023-08-06T13:05:16;2.97;;;2.17;;
59273;SDS011;45044;41.572;24.730;2023-08-06T13:07:43;3.15;;;2.17;;
59273;SDS011;45044;41.572;24.730;2023-08-06T13:10:10;3.83;;;2.05;;
59273;SDS011;45044;41.572;24.730;2023-08-06T13:12:37;2.88;;;2.30;;
59273;SDS011;45044;41.572;24.730;2023-08-06T13:15:04;3.33;;;2.10;;
59273;SDS011;45044;41.572;24.730;2023-08-06T13:17:31;3.35;;;2.38;;
59273;SDS011;45044;41.572;24.730;2023-08-06T13:19:58;4.47;;;2.15;;
59273;SDS011;45044;41.572;24.730;2023-08-06T13:22:25;4.93;;;1.95;;
59273;SDS011;45044;41.572;24.730;2023-08-06T13:24:52;3.78;;;1.75;;
59273;SDS011;45044;41.572;24.730;2023-08-06T13:27:19;4.20;;;1.92;;
59273;SDS011;45044;41.572;24.730;2023-08-06T13:29:46;3.95;;;2.90;;
59273;SDS011;45044;41.572;24.730;2023-08-06T13:32:12;1.90;;;1.42;;
59273;SDS011;45044;41.572;24.730;2023-08-06T13:34:39;3.55;;;2.10;;
59273;SDS011;45044;41.572;24.730;2023-08-06T13:37:06;3.30;;;1.83;;
59273;SDS011;45044;41.572;24.730;2023-08-06T13:39:33;3.10;;;1.63;;
59273;SDS011;45044;41.572;24.730;2023-08-06T13:42:00;2.92;;;1.50;;
59273;SDS011;45044;41.572;24.730;2023-08-06T13:44:26;4.03;;;1.70;;
59273;SDS011;45044;41.572;24.730;2023-08-06T13:46:55;3.65;;;1.70;;
59273;SDS011;45044;41.572;24.730;2023-08-06T13:49:22;2.60;;;1.60;;
59273;SDS011;45044;41.572;24.730;2023-08-06T13:51:48;2.38;;;1.50;;
59273;SDS011;45044;41.572;24.730;2023-08-06T13:54:15;4.07;;;1.67;;
59273;SDS011;45044;41.572;24.730;2023-08-06T13:56:43;3.47;;;2.00;;
59273;SDS011;45044;41.572;24.730;2023-08-06T13:59:09;2.65;;;1.42;;
59273;SDS011;45044;41.572;24.730;2023-08-06T14:01:40;2.38;;;1.40;;
59273;SDS011;45044;41.572;24.730;2023-08-06T14:04:17;2.70;;;1.50;;
59273;SDS011;45044;41.572;24.730;2023-08-06T14:06:43;2.33;;;1.25;;
59273;SDS011;45044;41.572;24.730;2023-08-06T14:09:10;2.70;;;1.50;;
59273;SDS011;45044;41.572;24.730;2023-08-06T14:11:40;2.47;;;1.20;;
59273;SDS011;45044;41.572;24.730;2023-08-06T14:14:07;3.17;;;1.80;;
59273;SDS011;45044;41.572;24.730;2023-08-06T14:16:34;2.88;;;1.35;;
59273;SDS011;45044;41.572;24.730;2023-08-06T14:19:01;1.73;;;1.13;;
59273;SDS011;45044;41.572;24.730;2023-08-06T14:21:27;2.08;;;1.05;;
59273;SDS011;45044;41.572;24.730;2023-08-06T14:23:54;1.83;;;1.25;;
59273;SDS011;45044;41.572;24.730;2023-08-06T14:26:22;1.40;;;0.90;;
59273;SDS011;45044;41.572;24.730;2023-08-06T14:28:49;2.03;;;1.30;;
59273;SDS011;45044;41.572;24.730;2023-08-06T14:31:15;2.50;;;1.30;;
59273;SDS011;45044;41.572;24.730;2023-08-06T14:33:42;2.83;;;1.55;;
59273;SDS011;45044;41.572;24.730;2023-08-06T14:36:09;2.30;;;1.08;;
59273;SDS011;45044;41.572;24.730;2023-08-06T14:38:36;1.92;;;1.20;;
59273;SDS011;45044;41.572;24.730;2023-08-06T14:41:19;3.45;;;1.08;;